sensor_id;sensor_type;location;lat;lon;timestamp;P1;durP1;ratioP1;P2;durP2;ratioP2
36379;SDS011;22411;53.016;18.632;2023-04-24T00:00:31;11.93;;;10.68;;
36379;SDS011;22411;53.016;18.632;2023-04-24T00:03:18;11.73;;;10.45;;
36379;SDS011;22411;53.016;18.632;2023-04-24T00:05:47;11.82;;;10.57;;
36379;SDS011;22411;53.016;18.632;2023-04-24T00:08:13;11.50;;;10.30;;
36379;SDS011;22411;53.016;18.632;2023-04-24T00:10:40;14.05;;;10.00;;
36379;SDS011;22411;53.016;18.632;2023-04-24T00:13:06;11.52;;;10.18;;
36379;SDS011;22411;53.016;18.632;2023-04-24T00:15:34;11.15;;;10.05;;
36379;SDS011;22411;53.016;18.632;2023-04-24T00:18:00;12.80;;;9.32;;
36379;SDS011;22411;53.016;18.632;2023-04-24T00:20:29;10.27;;;9.05;;
36379;SDS011;22411;53.016;18.632;2023-04-24T00:22:58;11.63;;;9.88;;
36379;SDS011;22411;53.016;18.632;2023-04-24T00:25:25;13.30;;;10.48;;
36379;SDS011;22411;53.016;18.632;2023-04-24T00:27:51;13.57;;;10.50;;
36379;SDS011;22411;53.016;18.632;2023-04-24T00:30:18;17.27;;;12.35;;
36379;SDS011;22411;53.016;18.632;2023-04-24T00:32:45;13.10;;;11.80;;
36379;SDS011;22411;53.016;18.632;2023-04-24T00:35:12;13.63;;;12.00;;
36379;SDS011;22411;53.016;18.632;2023-04-24T00:37:40;15.45;;;12.02;;
36379;SDS011;22411;53.016;18.632;2023-04-24T00:40:07;14.45;;;11.60;;
36379;SDS011;22411;53.016;18.632;2023-04-24T00:42:34;15.93;;;12.20;;
36379;SDS011;22411;53.016;18.632;2023-04-24T00:45:01;13.35;;;12.05;;
36379;SDS011;22411;53.016;18.632;2023-04-24T00:47:28;16.55;;;12.38;;
36379;SDS011;22411;53.016;18.632;2023-04-24T00:49:56;13.82;;;12.00;;
36379;SDS011;22411;53.016;18.632;2023-04-24T00:52:23;14.70;;;11.75;;
36379;SDS011;22411;53.016;18.632;2023-04-24T00:54:50;12.63;;;11.30;;
36379;SDS011;22411;53.016;18.632;2023-04-24T00:57:17;13.68;;;12.27;;
36379;SDS011;22411;53.016;18.632;2023-04-24T00:59:44;13.13;;;11.82;;
36379;SDS011;22411;53.016;18.632;2023-04-24T01:02:10;12.38;;;11.05;;
36379;SDS011;22411;53.016;18.632;2023-04-24T01:04:38;14.93;;;11.95;;
36379;SDS011;22411;53.016;18.632;2023-04-24T01:07:05;13.40;;;11.45;;
36379;SDS011;22411;53.016;18.632;2023-04-24T01:09:40;13.40;;;11.50;;
36379;SDS011;22411;53.016;18.632;2023-04-24T01:12:08;14.40;;;12.45;;
36379;SDS011;22411;53.016;18.632;2023-04-24T01:14:36;14.43;;;12.55;;
36379;SDS011;22411;53.016;18.632;2023-04-24T01:17:02;15.48;;;12.05;;
36379;SDS011;22411;53.016;18.632;2023-04-24T01:19:30;15.23;;;12.88;;
36379;SDS011;22411;53.016;18.632;2023-04-24T01:21:57;12.70;;;11.40;;
36379;SDS011;22411;53.016;18.632;2023-04-24T01:24:25;15.27;;;11.25;;
36379;SDS011;22411;53.016;18.632;2023-04-24T01:26:51;12.90;;;10.77;;
36379;SDS011;22411;53.016;18.632;2023-04-24T01:29:18;13.77;;;11.15;;
36379;SDS011;22411;53.016;18.632;2023-04-24T01:31:45;15.18;;;12.25;;
36379;SDS011;22411;53.016;18.632;2023-04-24T01:34:11;13.65;;;11.20;;
36379;SDS011;22411;53.016;18.632;2023-04-24T01:36:38;16.05;;;12.88;;
36379;SDS011;22411;53.016;18.632;2023-04-24T01:39:06;18.75;;;13.63;;
36379;SDS011;22411;53.016;18.632;2023-04-24T01:41:32;12.85;;;10.52;;
36379;SDS011;22411;53.016;18.632;2023-04-24T01:44:00;13.23;;;10.30;;
36379;SDS011;22411;53.016;18.632;2023-04-24T01:46:27;13.35;;;11.40;;
36379;SDS011;22411;53.016;18.632;2023-04-24T01:48:53;13.88;;;12.45;;
36379;SDS011;22411;53.016;18.632;2023-04-24T01:51:20;13.27;;;11.48;;
36379;SDS011;22411;53.016;18.632;2023-04-24T01:53:48;13.02;;;11.43;;
36379;SDS011;22411;53.016;18.632;2023-04-24T01:56:14;13.30;;;11.85;;
36379;SDS011;22411;53.016;18.632;2023-04-24T01:58:40;13.05;;;10.73;;
36379;SDS011;22411;53.016;18.632;2023-04-24T02:01:07;12.05;;;10.57;;
36379;SDS011;22411;53.016;18.632;2023-04-24T02:03:34;12.27;;;11.02;;
36379;SDS011;22411;53.016;18.632;2023-04-24T02:06:00;14.48;;;11.88;;
36379;SDS011;22411;53.016;18.632;2023-04-24T02:08:26;14.82;;;12.18;;
36379;SDS011;22411;53.016;18.632;2023-04-24T02:10:53;13.18;;;10.90;;
36379;SDS011;22411;53.016;18.632;2023-04-24T02:13:20;12.52;;;10.70;;
36379;SDS011;22411;53.016;18.632;2023-04-24T02:15:47;12.77;;;11.38;;
36379;SDS011;22411;53.016;18.632;2023-04-24T02:18:13;13.82;;;11.35;;
36379;SDS011;22411;53.016;18.632;2023-04-24T02:20:39;13.63;;;12.05;;
36379;SDS011;22411;53.016;18.632;2023-04-24T02:23:05;11.13;;;10.02;;
36379;SDS011;22411;53.016;18.632;2023-04-24T02:25:32;12.98;;;11.57;;
36379;SDS011;22411;53.016;18.632;2023-04-24T02:27:59;14.77;;;12.20;;
36379;SDS011;22411;53.016;18.632;2023-04-24T02:30:25;12.25;;;11.02;;
36379;SDS011;22411;53.016;18.632;2023-04-24T02:32:52;14.50;;;11.90;;
36379;SDS011;22411;53.016;18.632;2023-04-24T02:35:17;15.10;;;12.05;;
36379;SDS011;22411;53.016;18.632;2023-04-24T02:37:43;13.52;;;11.40;;
36379;SDS011;22411;53.016;18.632;2023-04-24T02:40:09;13.32;;;11.05;;
36379;SDS011;22411;53.016;18.632;2023-04-24T02:42:36;13.30;;;11.85;;
36379;SDS011;22411;53.016;18.632;2023-04-24T02:45:03;13.23;;;11.57;;
36379;SDS011;22411;53.016;18.632;2023-04-24T02:47:31;14.05;;;11.45;;
36379;SDS011;22411;53.016;18.632;2023-04-24T02:49:57;13.32;;;12.02;;
36379;SDS011;22411;53.016;18.632;2023-04-24T02:52:23;15.32;;;12.55;;
36379;SDS011;22411;53.016;18.632;2023-04-24T02:54:49;16.48;;;12.38;;
36379;SDS011;22411;53.016;18.632;2023-04-24T02:57:15;15.73;;;13.20;;
36379;SDS011;22411;53.016;18.632;2023-04-24T02:59:41;13.70;;;12.23;;
36379;SDS011;22411;53.016;18.632;2023-04-24T03:02:08;14.98;;;12.52;;
36379;SDS011;22411;53.016;18.632;2023-04-24T03:04:34;18.23;;;13.10;;
36379;SDS011;22411;53.016;18.632;2023-04-24T03:07:00;13.77;;;12.25;;
36379;SDS011;22411;53.016;18.632;2023-04-24T03:09:26;14.88;;;11.55;;
36379;SDS011;22411;53.016;18.632;2023-04-24T03:11:53;14.25;;;12.75;;
36379;SDS011;22411;53.016;18.632;2023-04-24T03:14:20;15.23;;;12.63;;
36379;SDS011;22411;53.016;18.632;2023-04-24T03:16:46;15.85;;;12.73;;
36379;SDS011;22411;53.016;18.632;2023-04-24T03:19:12;15.98;;;12.55;;
36379;SDS011;22411;53.016;18.632;2023-04-24T03:21:39;16.58;;;13.07;;
36379;SDS011;22411;53.016;18.632;2023-04-24T03:24:08;14.85;;;13.35;;
36379;SDS011;22411;53.016;18.632;2023-04-24T03:26:35;17.60;;;12.75;;
36379;SDS011;22411;53.016;18.632;2023-04-24T03:29:01;14.00;;;11.13;;
36379;SDS011;22411;53.016;18.632;2023-04-24T03:31:27;18.08;;;13.82;;
36379;SDS011;22411;53.016;18.632;2023-04-24T03:33:53;17.33;;;12.88;;
36379;SDS011;22411;53.016;18.632;2023-04-24T03:36:20;16.02;;;12.65;;
36379;SDS011;22411;53.016;18.632;2023-04-24T03:38:46;16.00;;;12.65;;
36379;SDS011;22411;53.016;18.632;2023-04-24T03:41:13;17.85;;;12.40;;
36379;SDS011;22411;53.016;18.632;2023-04-24T03:43:39;16.75;;;13.13;;
36379;SDS011;22411;53.016;18.632;2023-04-24T03:46:05;16.15;;;13.32;;
36379;SDS011;22411;53.016;18.632;2023-04-24T03:48:32;16.65;;;14.02;;
36379;SDS011;22411;53.016;18.632;2023-04-24T03:50:59;16.25;;;13.23;;
36379;SDS011;22411;53.016;18.632;2023-04-24T03:53:27;16.95;;;12.60;;
36379;SDS011;22411;53.016;18.632;2023-04-24T03:55:55;15.70;;;13.15;;
36379;SDS011;22411;53.016;18.632;2023-04-24T03:58:21;17.27;;;13.38;;
36379;SDS011;22411;53.016;18.632;2023-04-24T04:00:47;16.92;;;13.90;;
36379;SDS011;22411;53.016;18.632;2023-04-24T04:03:15;15.90;;;12.88;;
36379;SDS011;22411;53.016;18.632;2023-04-24T04:05:42;16.75;;;14.23;;
36379;SDS011;22411;53.016;18.632;2023-04-24T04:08:08;18.88;;;14.18;;
36379;SDS011;22411;53.016;18.632;2023-04-24T04:10:34;17.05;;;13.07;;
36379;SDS011;22411;53.016;18.632;2023-04-24T04:13:01;15.88;;;13.35;;
36379;SDS011;22411;53.016;18.632;2023-04-24T04:15:27;17.33;;;13.43;;
36379;SDS011;22411;53.016;18.632;2023-04-24T04:17:54;12.93;;;11.55;;
36379;SDS011;22411;53.016;18.632;2023-04-24T04:20:20;15.00;;;11.95;;
36379;SDS011;22411;53.016;18.632;2023-04-24T04:22:47;13.45;;;11.95;;
36379;SDS011;22411;53.016;18.632;2023-04-24T04:25:14;14.55;;;11.63;;
36379;SDS011;22411;53.016;18.632;2023-04-24T04:27:40;15.23;;;12.38;;
36379;SDS011;22411;53.016;18.632;2023-04-24T04:30:07;13.95;;;11.75;;
36379;SDS011;22411;53.016;18.632;2023-04-24T04:32:35;14.30;;;10.85;;
36379;SDS011;22411;53.016;18.632;2023-04-24T04:35:01;14.32;;;12.15;;
36379;SDS011;22411;53.016;18.632;2023-04-24T04:37:29;15.60;;;13.30;;
36379;SDS011;22411;53.016;18.632;2023-04-24T04:39:55;13.55;;;12.15;;
36379;SDS011;22411;53.016;18.632;2023-04-24T04:42:23;13.50;;;12.10;;
36379;SDS011;22411;53.016;18.632;2023-04-24T04:44:51;15.50;;;12.88;;
36379;SDS011;22411;53.016;18.632;2023-04-24T04:47:18;14.45;;;11.93;;
36379;SDS011;22411;53.016;18.632;2023-04-24T04:49:49;15.30;;;13.13;;
36379;SDS011;22411;53.016;18.632;2023-04-24T04:52:19;15.85;;;13.73;;
36379;SDS011;22411;53.016;18.632;2023-04-24T04:54:45;19.45;;;14.63;;
36379;SDS011;22411;53.016;18.632;2023-04-24T04:57:11;17.80;;;13.77;;
36379;SDS011;22411;53.016;18.632;2023-04-24T04:59:38;18.02;;;14.80;;
36379;SDS011;22411;53.016;18.632;2023-04-24T05:02:03;17.75;;;14.43;;
36379;SDS011;22411;53.016;18.632;2023-04-24T05:04:30;16.80;;;14.38;;
36379;SDS011;22411;53.016;18.632;2023-04-24T05:06:56;18.20;;;15.02;;
36379;SDS011;22411;53.016;18.632;2023-04-24T05:09:23;18.42;;;14.98;;
36379;SDS011;22411;53.016;18.632;2023-04-24T05:11:52;19.73;;;15.93;;
36379;SDS011;22411;53.016;18.632;2023-04-24T05:14:19;19.98;;;14.93;;
36379;SDS011;22411;53.016;18.632;2023-04-24T05:16:45;17.88;;;14.75;;
36379;SDS011;22411;53.016;18.632;2023-04-24T05:19:11;17.10;;;14.65;;
36379;SDS011;22411;53.016;18.632;2023-04-24T05:21:39;20.30;;;15.57;;
36379;SDS011;22411;53.016;18.632;2023-04-24T05:24:06;20.60;;;16.15;;
36379;SDS011;22411;53.016;18.632;2023-04-24T05:26:32;15.95;;;13.98;;
36379;SDS011;22411;53.016;18.632;2023-04-24T05:28:59;21.63;;;16.20;;
36379;SDS011;22411;53.016;18.632;2023-04-24T05:31:25;18.45;;;16.08;;
36379;SDS011;22411;53.016;18.632;2023-04-24T05:33:52;18.35;;;15.20;;
36379;SDS011;22411;53.016;18.632;2023-04-24T05:36:18;21.17;;;15.93;;
36379;SDS011;22411;53.016;18.632;2023-04-24T05:38:44;19.90;;;15.00;;
36379;SDS011;22411;53.016;18.632;2023-04-24T05:41:10;18.88;;;14.57;;
36379;SDS011;22411;53.016;18.632;2023-04-24T05:43:36;22.77;;;17.15;;
36379;SDS011;22411;53.016;18.632;2023-04-24T05:46:03;22.48;;;16.55;;
36379;SDS011;22411;53.016;18.632;2023-04-24T05:48:29;24.45;;;16.65;;
36379;SDS011;22411;53.016;18.632;2023-04-24T05:50:56;22.67;;;17.27;;
36379;SDS011;22411;53.016;18.632;2023-04-24T05:53:22;19.23;;;16.50;;
36379;SDS011;22411;53.016;18.632;2023-04-24T05:55:48;17.48;;;14.77;;
36379;SDS011;22411;53.016;18.632;2023-04-24T05:58:15;20.27;;;13.93;;
36379;SDS011;22411;53.016;18.632;2023-04-24T06:00:41;17.73;;;14.02;;
36379;SDS011;22411;53.016;18.632;2023-04-24T06:03:10;15.60;;;11.63;;
36379;SDS011;22411;53.016;18.632;2023-04-24T06:05:35;14.95;;;12.65;;
36379;SDS011;22411;53.016;18.632;2023-04-24T06:08:02;13.35;;;11.23;;
36379;SDS011;22411;53.016;18.632;2023-04-24T06:10:28;12.63;;;10.50;;
36379;SDS011;22411;53.016;18.632;2023-04-24T06:12:54;12.32;;;10.13;;
36379;SDS011;22411;53.016;18.632;2023-04-24T06:15:27;12.30;;;10.98;;
36379;SDS011;22411;53.016;18.632;2023-04-24T06:17:56;16.10;;;10.30;;
36379;SDS011;22411;53.016;18.632;2023-04-24T06:20:23;12.90;;;10.73;;
36379;SDS011;22411;53.016;18.632;2023-04-24T06:22:49;16.58;;;10.18;;
36379;SDS011;22411;53.016;18.632;2023-04-24T06:25:15;12.15;;;9.00;;
36379;SDS011;22411;53.016;18.632;2023-04-24T06:27:41;12.10;;;9.15;;
36379;SDS011;22411;53.016;18.632;2023-04-24T06:30:08;9.27;;;7.95;;
36379;SDS011;22411;53.016;18.632;2023-04-24T06:32:34;9.82;;;8.68;;
36379;SDS011;22411;53.016;18.632;2023-04-24T06:35:00;11.63;;;8.90;;
36379;SDS011;22411;53.016;18.632;2023-04-24T06:37:26;9.18;;;7.10;;
36379;SDS011;22411;53.016;18.632;2023-04-24T06:39:53;9.63;;;7.40;;
36379;SDS011;22411;53.016;18.632;2023-04-24T06:42:19;9.00;;;7.38;;
36379;SDS011;22411;53.016;18.632;2023-04-24T06:44:47;9.45;;;7.10;;
36379;SDS011;22411;53.016;18.632;2023-04-24T06:47:13;8.20;;;7.40;;
36379;SDS011;22411;53.016;18.632;2023-04-24T06:49:40;8.25;;;6.82;;
36379;SDS011;22411;53.016;18.632;2023-04-24T06:52:06;8.75;;;6.97;;
36379;SDS011;22411;53.016;18.632;2023-04-24T06:54:33;7.72;;;6.82;;
36379;SDS011;22411;53.016;18.632;2023-04-24T06:56:59;8.57;;;7.03;;
36379;SDS011;22411;53.016;18.632;2023-04-24T06:59:29;7.45;;;6.68;;
36379;SDS011;22411;53.016;18.632;2023-04-24T07:01:56;8.23;;;7.40;;
36379;SDS011;22411;53.016;18.632;2023-04-24T07:04:23;9.73;;;7.05;;
36379;SDS011;22411;53.016;18.632;2023-04-24T07:06:50;7.68;;;6.75;;
36379;SDS011;22411;53.016;18.632;2023-04-24T07:09:17;12.18;;;9.35;;
36379;SDS011;22411;53.016;18.632;2023-04-24T07:11:44;7.43;;;5.90;;
36379;SDS011;22411;53.016;18.632;2023-04-24T07:14:11;9.63;;;6.55;;
36379;SDS011;22411;53.016;18.632;2023-04-24T07:16:37;8.50;;;6.93;;
36379;SDS011;22411;53.016;18.632;2023-04-24T07:19:04;7.85;;;6.25;;
36379;SDS011;22411;53.016;18.632;2023-04-24T07:21:31;10.00;;;6.43;;
36379;SDS011;22411;53.016;18.632;2023-04-24T07:23:57;8.32;;;5.15;;
36379;SDS011;22411;53.016;18.632;2023-04-24T07:26:24;5.82;;;5.22;;
36379;SDS011;22411;53.016;18.632;2023-04-24T07:28:52;6.78;;;5.45;;
36379;SDS011;22411;53.016;18.632;2023-04-24T07:31:18;5.97;;;5.28;;
36379;SDS011;22411;53.016;18.632;2023-04-24T07:33:44;5.53;;;4.80;;
36379;SDS011;22411;53.016;18.632;2023-04-24T07:36:10;6.18;;;5.00;;
36379;SDS011;22411;53.016;18.632;2023-04-24T07:38:47;6.05;;;4.55;;
36379;SDS011;22411;53.016;18.632;2023-04-24T07:41:13;5.65;;;4.68;;
36379;SDS011;22411;53.016;18.632;2023-04-24T07:43:40;5.40;;;4.85;;
36379;SDS011;22411;53.016;18.632;2023-04-24T07:46:08;4.55;;;4.15;;
36379;SDS011;22411;53.016;18.632;2023-04-24T07:48:35;8.05;;;4.57;;
36379;SDS011;22411;53.016;18.632;2023-04-24T07:51:01;4.85;;;3.53;;
36379;SDS011;22411;53.016;18.632;2023-04-24T07:53:28;6.10;;;3.78;;
36379;SDS011;22411;53.016;18.632;2023-04-24T07:55:55;5.70;;;2.95;;
36379;SDS011;22411;53.016;18.632;2023-04-24T07:58:21;3.22;;;2.83;;
36379;SDS011;22411;53.016;18.632;2023-04-24T08:00:48;4.60;;;2.85;;
36379;SDS011;22411;53.016;18.632;2023-04-24T08:03:14;5.35;;;2.92;;
36379;SDS011;22411;53.016;18.632;2023-04-24T08:05:43;6.55;;;3.40;;
36379;SDS011;22411;53.016;18.632;2023-04-24T08:08:10;3.05;;;2.05;;
36379;SDS011;22411;53.016;18.632;2023-04-24T08:10:36;3.17;;;2.40;;
36379;SDS011;22411;53.016;18.632;2023-04-24T08:13:02;4.03;;;2.42;;
36379;SDS011;22411;53.016;18.632;2023-04-24T08:15:28;2.97;;;2.30;;
36379;SDS011;22411;53.016;18.632;2023-04-24T08:17:55;2.88;;;2.30;;
36379;SDS011;22411;53.016;18.632;2023-04-24T08:20:22;4.22;;;2.05;;
36379;SDS011;22411;53.016;18.632;2023-04-24T08:22:49;5.65;;;2.33;;
36379;SDS011;22411;53.016;18.632;2023-04-24T08:25:15;2.75;;;2.38;;
36379;SDS011;22411;53.016;18.632;2023-04-24T08:27:42;4.10;;;2.40;;
36379;SDS011;22411;53.016;18.632;2023-04-24T08:30:09;4.07;;;2.45;;
36379;SDS011;22411;53.016;18.632;2023-04-24T08:32:36;3.63;;;2.80;;
36379;SDS011;22411;53.016;18.632;2023-04-24T08:35:02;3.20;;;2.55;;
36379;SDS011;22411;53.016;18.632;2023-04-24T08:37:29;4.97;;;2.53;;
36379;SDS011;22411;53.016;18.632;2023-04-24T08:39:55;5.78;;;2.20;;
36379;SDS011;22411;53.016;18.632;2023-04-24T08:42:22;3.60;;;2.40;;
36379;SDS011;22411;53.016;18.632;2023-04-24T08:44:49;2.28;;;2.08;;
36379;SDS011;22411;53.016;18.632;2023-04-24T08:47:15;3.58;;;1.52;;
36379;SDS011;22411;53.016;18.632;2023-04-24T08:49:41;2.95;;;1.42;;
36379;SDS011;22411;53.016;18.632;2023-04-24T08:52:09;4.38;;;1.65;;
36379;SDS011;22411;53.016;18.632;2023-04-24T08:54:38;3.53;;;1.75;;
36379;SDS011;22411;53.016;18.632;2023-04-24T08:57:06;6.93;;;2.50;;
36379;SDS011;22411;53.016;18.632;2023-04-24T08:59:33;5.03;;;2.85;;
36379;SDS011;22411;53.016;18.632;2023-04-24T09:02:01;4.97;;;3.13;;
36379;SDS011;22411;53.016;18.632;2023-04-24T09:04:29;4.32;;;2.90;;
36379;SDS011;22411;53.016;18.632;2023-04-24T09:06:57;3.58;;;3.10;;
36379;SDS011;22411;53.016;18.632;2023-04-24T09:09:24;2.95;;;2.20;;
36379;SDS011;22411;53.016;18.632;2023-04-24T09:11:51;5.47;;;2.53;;
36379;SDS011;22411;53.016;18.632;2023-04-24T09:14:21;4.75;;;3.08;;
36379;SDS011;22411;53.016;18.632;2023-04-24T09:16:49;3.65;;;1.52;;
36379;SDS011;22411;53.016;18.632;2023-04-24T09:19:16;1.80;;;0.98;;
36379;SDS011;22411;53.016;18.632;2023-04-24T09:21:45;2.38;;;1.42;;
36379;SDS011;22411;53.016;18.632;2023-04-24T09:24:15;6.55;;;1.17;;
36379;SDS011;22411;53.016;18.632;2023-04-24T09:26:48;2.58;;;1.33;;
36379;SDS011;22411;53.016;18.632;2023-04-24T09:29:23;3.15;;;2.15;;
36379;SDS011;22411;53.016;18.632;2023-04-24T09:31:49;3.85;;;2.30;;
36379;SDS011;22411;53.016;18.632;2023-04-24T09:34:20;2.83;;;1.98;;
36379;SDS011;22411;53.016;18.632;2023-04-24T09:36:51;2.33;;;1.92;;
36379;SDS011;22411;53.016;18.632;2023-04-24T09:39:18;4.80;;;2.53;;
36379;SDS011;22411;53.016;18.632;2023-04-24T09:41:54;3.73;;;2.60;;
36379;SDS011;22411;53.016;18.632;2023-04-24T09:44:26;4.75;;;2.75;;
36379;SDS011;22411;53.016;18.632;2023-04-24T09:46:54;3.83;;;2.75;;
36379;SDS011;22411;53.016;18.632;2023-04-24T09:49:23;6.05;;;3.20;;
36379;SDS011;22411;53.016;18.632;2023-04-24T09:51:51;4.00;;;2.65;;
36379;SDS011;22411;53.016;18.632;2023-04-24T09:54:19;3.30;;;2.65;;
36379;SDS011;22411;53.016;18.632;2023-04-24T09:56:47;2.83;;;2.60;;
36379;SDS011;22411;53.016;18.632;2023-04-24T09:59:16;4.28;;;2.80;;
36379;SDS011;22411;53.016;18.632;2023-04-24T10:01:45;3.97;;;2.75;;
36379;SDS011;22411;53.016;18.632;2023-04-24T10:04:23;2.83;;;2.47;;
36379;SDS011;22411;53.016;18.632;2023-04-24T10:06:53;4.15;;;2.75;;
36379;SDS011;22411;53.016;18.632;2023-04-24T10:09:25;3.88;;;3.17;;
36379;SDS011;22411;53.016;18.632;2023-04-24T10:11:52;4.72;;;3.28;;
36379;SDS011;22411;53.016;18.632;2023-04-24T10:14:23;3.47;;;3.03;;
36379;SDS011;22411;53.016;18.632;2023-04-24T10:16:54;6.80;;;3.90;;
36379;SDS011;22411;53.016;18.632;2023-04-24T10:21:51;16.83;;;15.43;;
36379;SDS011;22411;53.016;18.632;2023-04-24T10:24:19;5.32;;;4.70;;
36379;SDS011;22411;53.016;18.632;2023-04-24T10:26:49;5.18;;;4.25;;
36379;SDS011;22411;53.016;18.632;2023-04-24T10:29:17;10.05;;;8.13;;
36379;SDS011;22411;53.016;18.632;2023-04-24T10:31:44;4.72;;;4.03;;
36379;SDS011;22411;53.016;18.632;2023-04-24T10:34:14;7.50;;;6.57;;
36379;SDS011;22411;53.016;18.632;2023-04-24T10:36:43;5.60;;;4.82;;
36379;SDS011;22411;53.016;18.632;2023-04-24T10:39:13;5.78;;;4.32;;
36379;SDS011;22411;53.016;18.632;2023-04-24T10:41:41;8.00;;;6.55;;
36379;SDS011;22411;53.016;18.632;2023-04-24T10:44:08;9.50;;;7.13;;
36379;SDS011;22411;53.016;18.632;2023-04-24T10:46:35;5.13;;;4.60;;
36379;SDS011;22411;53.016;18.632;2023-04-24T10:49:05;5.85;;;4.47;;
36379;SDS011;22411;53.016;18.632;2023-04-24T10:51:50;6.35;;;4.95;;
36379;SDS011;22411;53.016;18.632;2023-04-24T10:59:48;6.93;;;4.40;;
36379;SDS011;22411;53.016;18.632;2023-04-24T11:02:36;5.53;;;4.57;;
36379;SDS011;22411;53.016;18.632;2023-04-24T11:05:03;5.95;;;4.95;;
36379;SDS011;22411;53.016;18.632;2023-04-24T11:08:05;5.50;;;4.25;;
36379;SDS011;22411;53.016;18.632;2023-04-24T11:10:46;4.95;;;3.88;;
36379;SDS011;22411;53.016;18.632;2023-04-24T11:13:16;3.47;;;3.17;;
36379;SDS011;22411;53.016;18.632;2023-04-24T11:15:42;5.53;;;3.83;;
36379;SDS011;22411;53.016;18.632;2023-04-24T11:18:13;5.95;;;4.22;;
36379;SDS011;22411;53.016;18.632;2023-04-24T11:20:42;5.90;;;4.18;;
36379;SDS011;22411;53.016;18.632;2023-04-24T11:23:11;6.82;;;4.20;;
36379;SDS011;22411;53.016;18.632;2023-04-24T11:25:38;4.40;;;4.00;;
36379;SDS011;22411;53.016;18.632;2023-04-24T11:28:04;5.45;;;3.35;;
36379;SDS011;22411;53.016;18.632;2023-04-24T11:30:32;8.63;;;5.82;;
36379;SDS011;22411;53.016;18.632;2023-04-24T11:33:03;3.97;;;3.53;;
36379;SDS011;22411;53.016;18.632;2023-04-24T11:35:30;7.15;;;3.80;;
36379;SDS011;22411;53.016;18.632;2023-04-24T11:38:03;5.32;;;4.05;;
36379;SDS011;22411;53.016;18.632;2023-04-24T11:40:30;3.90;;;3.47;;
36379;SDS011;22411;53.016;18.632;2023-04-24T11:42:59;10.50;;;4.15;;
36379;SDS011;22411;53.016;18.632;2023-04-24T11:45:26;5.68;;;3.80;;
36379;SDS011;22411;53.016;18.632;2023-04-24T11:47:54;4.75;;;2.67;;
36379;SDS011;22411;53.016;18.632;2023-04-24T11:50:21;4.95;;;3.38;;
36379;SDS011;22411;53.016;18.632;2023-04-24T11:52:50;5.07;;;3.28;;
36379;SDS011;22411;53.016;18.632;2023-04-24T11:57:46;5.85;;;3.85;;
36379;SDS011;22411;53.016;18.632;2023-04-24T12:00:17;3.20;;;2.72;;
36379;SDS011;22411;53.016;18.632;2023-04-24T12:02:49;3.70;;;3.40;;
36379;SDS011;22411;53.016;18.632;2023-04-24T12:05:20;5.60;;;3.47;;
36379;SDS011;22411;53.016;18.632;2023-04-24T12:07:47;5.60;;;3.67;;
36379;SDS011;22411;53.016;18.632;2023-04-24T12:10:13;3.92;;;3.13;;
36379;SDS011;22411;53.016;18.632;2023-04-24T12:12:40;5.78;;;3.22;;
36379;SDS011;22411;53.016;18.632;2023-04-24T12:15:06;4.43;;;3.72;;
36379;SDS011;22411;53.016;18.632;2023-04-24T12:17:34;6.22;;;2.78;;
36379;SDS011;22411;53.016;18.632;2023-04-24T12:20:08;5.18;;;3.00;;
36379;SDS011;22411;53.016;18.632;2023-04-24T12:22:44;6.43;;;3.72;;
36379;SDS011;22411;53.016;18.632;2023-04-24T12:25:18;4.03;;;3.63;;
36379;SDS011;22411;53.016;18.632;2023-04-24T12:27:46;4.45;;;3.33;;
36379;SDS011;22411;53.016;18.632;2023-04-24T12:30:17;6.50;;;4.50;;
36379;SDS011;22411;53.016;18.632;2023-04-24T12:32:47;5.43;;;4.40;;
36379;SDS011;22411;53.016;18.632;2023-04-24T12:35:21;5.75;;;4.22;;
36379;SDS011;22411;53.016;18.632;2023-04-24T12:37:49;5.65;;;5.10;;
36379;SDS011;22411;53.016;18.632;2023-04-24T12:40:16;6.20;;;5.13;;
36379;SDS011;22411;53.016;18.632;2023-04-24T12:42:47;5.53;;;4.60;;
36379;SDS011;22411;53.016;18.632;2023-04-24T12:47:42;4.95;;;4.45;;
36379;SDS011;22411;53.016;18.632;2023-04-24T12:50:09;8.10;;;5.00;;
36379;SDS011;22411;53.016;18.632;2023-04-24T12:52:38;6.50;;;5.03;;
36379;SDS011;22411;53.016;18.632;2023-04-24T12:55:05;7.43;;;4.97;;
36379;SDS011;22411;53.016;18.632;2023-04-24T12:57:34;8.07;;;4.55;;
36379;SDS011;22411;53.016;18.632;2023-04-24T13:00:02;6.45;;;5.15;;
36379;SDS011;22411;53.016;18.632;2023-04-24T13:02:30;6.22;;;4.88;;
36379;SDS011;22411;53.016;18.632;2023-04-24T13:04:57;4.57;;;3.40;;
36379;SDS011;22411;53.016;18.632;2023-04-24T13:07:25;4.38;;;3.97;;
36379;SDS011;22411;53.016;18.632;2023-04-24T13:09:51;4.13;;;3.70;;
36379;SDS011;22411;53.016;18.632;2023-04-24T13:12:19;4.15;;;3.75;;
36379;SDS011;22411;53.016;18.632;2023-04-24T13:14:46;5.40;;;4.40;;
36379;SDS011;22411;53.016;18.632;2023-04-24T13:17:13;4.68;;;4.25;;
36379;SDS011;22411;53.016;18.632;2023-04-24T13:19:40;7.38;;;4.43;;
36379;SDS011;22411;53.016;18.632;2023-04-24T13:22:08;5.05;;;4.32;;
36379;SDS011;22411;53.016;18.632;2023-04-24T13:24:36;5.05;;;4.55;;
36379;SDS011;22411;53.016;18.632;2023-04-24T13:27:03;4.30;;;3.90;;
36379;SDS011;22411;53.016;18.632;2023-04-24T13:29:30;5.25;;;3.97;;
36379;SDS011;22411;53.016;18.632;2023-04-24T13:31:56;5.07;;;4.15;;
36379;SDS011;22411;53.016;18.632;2023-04-24T13:34:23;6.15;;;4.05;;
36379;SDS011;22411;53.016;18.632;2023-04-24T13:36:50;5.47;;;4.35;;
36379;SDS011;22411;53.016;18.632;2023-04-24T13:39:18;5.03;;;4.53;;
36379;SDS011;22411;53.016;18.632;2023-04-24T13:41:44;7.72;;;5.10;;
36379;SDS011;22411;53.016;18.632;2023-04-24T13:44:13;7.40;;;4.93;;
36379;SDS011;22411;53.016;18.632;2023-04-24T13:46:41;6.60;;;5.28;;
36379;SDS011;22411;53.016;18.632;2023-04-24T13:49:10;9.70;;;5.55;;
36379;SDS011;22411;53.016;18.632;2023-04-24T13:51:37;5.80;;;5.30;;
36379;SDS011;22411;53.016;18.632;2023-04-24T13:54:04;5.13;;;4.63;;
36379;SDS011;22411;53.016;18.632;2023-04-24T13:56:30;10.05;;;5.72;;
36379;SDS011;22411;53.016;18.632;2023-04-24T13:58:57;6.32;;;4.43;;
36379;SDS011;22411;53.016;18.632;2023-04-24T14:01:24;6.32;;;5.45;;
36379;SDS011;22411;53.016;18.632;2023-04-24T14:03:50;5.47;;;4.97;;
36379;SDS011;22411;53.016;18.632;2023-04-24T14:06:18;5.47;;;4.97;;
36379;SDS011;22411;53.016;18.632;2023-04-24T14:08:45;4.95;;;4.50;;
36379;SDS011;22411;53.016;18.632;2023-04-24T14:11:15;7.65;;;5.30;;
36379;SDS011;22411;53.016;18.632;2023-04-24T14:13:42;5.38;;;4.60;;
36379;SDS011;22411;53.016;18.632;2023-04-24T14:16:10;7.45;;;4.68;;
36379;SDS011;22411;53.016;18.632;2023-04-24T14:18:36;8.75;;;5.35;;
36379;SDS011;22411;53.016;18.632;2023-04-24T14:21:04;6.78;;;5.30;;
36379;SDS011;22411;53.016;18.632;2023-04-24T14:23:30;10.88;;;5.82;;
36379;SDS011;22411;53.016;18.632;2023-04-24T14:25:57;7.40;;;5.22;;
36379;SDS011;22411;53.016;18.632;2023-04-24T14:28:23;6.45;;;5.30;;
36379;SDS011;22411;53.016;18.632;2023-04-24T14:30:51;8.48;;;6.40;;
36379;SDS011;22411;53.016;18.632;2023-04-24T14:33:17;6.10;;;5.32;;
36379;SDS011;22411;53.016;18.632;2023-04-24T14:35:44;6.65;;;5.63;;
36379;SDS011;22411;53.016;18.632;2023-04-24T14:38:11;7.60;;;5.38;;